Time;durP1;ratioP1;P1;durP2;ratioP2;P2;SDS_P1;SDS_P2;PMS_P1;PMS_P2;Temp;Humidity;BMP_temperature;BMP_pressure;BME280_temperature;BME280_humidity;BME280_pressure;Samples;Min_cycle;Max_cycle;Signal;HPM_P1;HPM_P2
2022/10/25 00:00:31;;;;;;;7.13;3.20;;;;;;;11.59;100.00;100404.41;4993696;28;20041;-78
2022/10/25 00:02:57;;;;;;;5.50;4.35;;;;;;;11.54;100.00;100406.34;4992474;28;20053;-76
2022/10/25 00:05:24;;;;;;;7.13;2.97;;;;;;;11.54;100.00;100407.22;4974778;28;20038;-77
2022/10/25 00:07:50;;;;;;;9.52;3.35;;;;;;;11.49;100.00;100400.31;4974153;28;20047;-77
2022/10/25 00:10:17;;;;;;;6.32;3.20;;;;;;;11.48;100.00;100396.78;4990978;28;20043;-77
2022/10/25 00:12:50;;;;;;;6.57;3.28;;;;;;;11.47;100.00;100410.94;4998187;28;20050;-77
2022/10/25 00:15:16;;;;;;;6.20;2.90;;;;;;;11.41;100.00;100404.94;4992618;28;20034;-77
2022/10/25 00:17:43;;;;;;;5.20;3.10;;;;;;;11.39;100.00;100406.78;5008080;28;20038;-76
2022/10/25 00:20:11;;;;;;;7.50;3.38;;;;;;;11.36;100.00;100414.81;4981539;28;20494;-77
2022/10/25 00:22:38;;;;;;;6.00;3.13;;;;;;;11.36;100.00;100420.97;5011482;28;20041;-77
2022/10/25 00:25:06;;;;;;;6.57;3.20;;;;;;;11.31;100.00;100419.34;4994124;28;20066;-77
2022/10/25 00:27:33;;;;;;;5.53;3.30;;;;;;;11.26;100.00;100415.03;4983222;28;20056;-77
2022/10/25 00:30:00;;;;;;;5.97;3.20;;;;;;;11.21;100.00;100418.72;4992545;28;20041;-77
2022/10/25 00:32:27;;;;;;;5.63;2.95;;;;;;;11.20;100.00;100420.50;4977286;28;20045;-77
2022/10/25 00:34:54;;;;;;;7.55;3.00;;;;;;;11.12;100.00;100416.31;4957948;28;20065;-77
2022/10/25 00:37:20;;;;;;;5.15;3.97;;;;;;;11.09;100.00;100419.03;4995955;28;20065;-77
2022/10/25 00:39:47;;;;;;;7.07;3.38;;;;;;;11.05;100.00;100428.84;4976009;28;20042;-77
2022/10/25 00:42:19;;;;;;;6.28;3.13;;;;;;;11.03;100.00;100424.50;4990121;28;20034;-78
2022/10/25 00:44:57;;;;;;;6.80;3.20;;;;;;;11.00;100.00;100420.16;4974391;28;20668;-76
2022/10/25 00:47:32;;;;;;;6.32;3.55;;;;;;;10.94;100.00;100429.13;4977400;28;20072;-77
2022/10/25 00:50:03;;;;;;;;;;;;;;;10.88;100.00;100426.63;5012001;28;20111;-77
2022/10/25 00:52:32;;;;;;;6.60;2.90;;;;;;;10.84;100.00;100427.59;4993733;28;20409;-77
2022/10/25 00:55:00;;;;;;;4.45;3.30;;;;;;;10.80;100.00;100431.25;4958161;28;20054;-77
2022/10/25 00:57:31;;;;;;;4.07;2.88;;;;;;;10.78;100.00;100430.41;4992591;28;20046;-77
2022/10/25 00:59:58;;;;;;;4.57;3.20;;;;;;;10.76;100.00;100434.84;4977897;28;20065;-77
2022/10/25 01:02:25;;;;;;;5.95;3.08;;;;;;;10.76;100.00;100431.34;4994019;28;20103;-78
2022/10/25 01:04:52;;;;;;;6.13;3.03;;;;;;;10.79;100.00;100436.56;4993515;28;20495;-77
2022/10/25 01:07:19;;;;;;;7.10;3.72;;;;;;;10.76;100.00;100436.63;4993371;28;20121;-77
2022/10/25 01:09:45;;;;;;;7.22;3.13;;;;;;;10.71;100.00;100432.34;5010423;28;20121;-77
2022/10/25 01:12:12;;;;;;;6.60;3.80;;;;;;;10.73;100.00;100432.28;4992333;28;20559;-77
2022/10/25 01:14:41;;;;;;;5.25;3.08;;;;;;;10.67;100.00;100427.16;4993587;28;20061;-77
2022/10/25 01:17:26;;;;;;;5.22;3.63;;;;;;;10.60;100.00;100422.94;4976638;28;20088;-76
2022/10/25 01:20:14;;;;;;;7.35;3.38;;;;;;;10.56;100.00;100437.13;4994373;28;20049;-77
2022/10/25 01:22:46;;;;;;;5.00;2.70;;;;;;;10.52;100.00;100423.13;5006409;28;20037;-77
2022/10/25 01:25:24;;;;;;;4.95;3.45;;;;;;;10.48;100.00;100421.44;4966923;28;20034;-76
2022/10/25 01:28:18;;;;;;;6.10;3.47;;;;;;;10.42;100.00;100430.41;4992556;28;20492;-77
2022/10/25 01:31:00;;;;;;;7.28;4.38;;;;;;;10.36;100.00;100427.03;4957374;28;20054;-77
2022/10/25 01:33:37;;;;;;;7.28;3.40;;;;;;;10.32;100.00;100426.22;4975791;28;20618;-77
2022/10/25 01:36:31;;;;;;;5.28;3.55;;;;;;;10.29;100.00;100428.06;4975204;28;20703;-78
2022/10/25 01:39:02;;;;;;;7.22;3.47;;;;;;;10.25;100.00;100424.63;4979783;28;20041;-77
2022/10/25 01:41:44;;;;;;;5.20;3.22;;;;;;;10.27;100.00;100432.53;4995631;28;20465;-77
2022/10/25 01:44:23;;;;;;;5.28;3.10;;;;;;;10.26;100.00;100434.31;4995707;28;20038;-77
2022/10/25 01:47:00;;;;;;;4.35;2.70;;;;;;;10.27;100.00;100427.25;4992651;28;20038;-77
2022/10/25 01:49:39;;;;;;;4.28;2.70;;;;;;;10.29;100.00;100428.06;4961186;28;20042;-77
2022/10/25 01:52:05;;;;;;;5.13;3.05;;;;;;;10.31;100.00;100427.13;4979570;28;20492;-77
2022/10/25 01:54:34;;;;;;;8.48;3.25;;;;;;;10.35;100.00;100426.16;4979477;28;20465;-77
2022/10/25 01:57:36;;;;;;;5.28;2.70;;;;;;;10.40;100.00;100429.53;4979232;28;20512;-77
2022/10/25 02:00:19;;;;;;;7.30;2.90;;;;;;;10.45;100.00;100426.81;4972229;28;20038;-77
2022/10/25 02:03:05;;;;;;;5.75;3.15;;;;;;;10.48;100.00;100420.59;4979723;28;20034;-77
2022/10/25 02:05:46;;;;;;;7.35;3.08;;;;;;;10.55;100.00;100422.19;4978705;28;20065;-77
2022/10/25 02:08:36;;;;;;;4.10;2.78;;;;;;;10.61;100.00;100422.03;4978737;28;20050;-77
2022/10/25 02:11:24;;;;;;;5.75;3.15;;;;;;;10.61;100.00;100425.53;4993333;28;20125;-77
2022/10/25 02:14:19;;;;;;;9.85;3.50;;;;;;;10.62;100.00;100429.91;4984290;28;20052;-78
2022/10/25 02:16:53;;;;;;;6.13;3.50;;;;;;;10.63;100.00;100429.00;4987994;28;20042;-77
2022/10/25 02:19:28;;;;;;;4.35;2.70;;;;;;;10.67;100.00;100435.06;4998887;28;20042;-77
2022/10/25 02:21:56;;;;;;;4.97;3.38;;;;;;;10.70;100.00;100432.38;4972275;28;20385;-77
2022/10/25 02:24:25;;;;;;;4.85;3.05;;;;;;;10.71;100.00;100429.69;4981446;28;20046;-77
2022/10/25 02:26:52;;;;;;;9.23;3.30;;;;;;;10.71;100.00;100431.47;4980773;28;20544;-77
2022/10/25 02:29:19;;;;;;;3.55;2.90;;;;;;;10.69;100.00;100434.16;4977536;28;20035;-77
2022/10/25 02:31:46;;;;;;;6.28;3.38;;;;;;;10.66;100.00;100428.06;4999112;28;20046;-77
2022/10/25 02:34:13;;;;;;;7.22;3.40;;;;;;;10.66;100.00;100428.06;4989192;28;20458;-77
2022/10/25 02:36:40;;;;;;;6.30;2.83;;;;;;;10.64;100.00;100433.38;4992251;28;20060;-77
2022/10/25 02:39:06;;;;;;;5.63;3.00;;;;;;;10.62;100.00;100431.69;4988584;28;20587;-77
2022/10/25 02:41:33;;;;;;;5.95;3.55;;;;;;;10.55;100.00;100425.69;4991549;28;20045;-77
2022/10/25 02:43:59;;;;;;;5.68;2.97;;;;;;;10.53;100.00;100427.50;4993180;28;20562;-77
2022/10/25 02:46:26;;;;;;;7.22;3.08;;;;;;;10.55;100.00;100427.47;4989278;28;20096;-77
2022/10/25 02:48:53;;;;;;;6.60;2.90;;;;;;;10.51;100.00;100431.97;4997903;28;20046;-78
2022/10/25 02:51:19;;;;;;;6.25;3.28;;;;;;;10.54;100.00;100423.09;4997735;28;20100;-78
2022/10/25 02:53:46;;;;;;;8.38;3.40;;;;;;;10.51;100.00;100420.50;4998377;28;20463;-78
2022/10/25 02:56:15;;;;;;;5.43;3.10;;;;;;;10.51;100.00;100439.88;4962926;28;20062;-78
2022/10/25 02:58:43;;;;;;;4.03;2.42;;;;;;;10.50;100.00;100430.19;4980522;28;20458;-77
2022/10/25 03:01:11;;;;;;;7.13;2.97;;;;;;;10.47;100.00;100422.34;4995983;28;20041;-78
2022/10/25 03:03:38;;;;;;;4.45;3.03;;;;;;;10.53;100.00;100430.16;4963436;28;20569;-78
2022/10/25 03:06:06;;;;;;;6.68;3.00;;;;;;;10.47;100.00;100432.06;4992281;28;20065;-78
2022/10/25 03:08:32;;;;;;;5.97;3.13;;;;;;;10.49;100.00;100433.75;5002416;28;20484;-78
2022/10/25 03:10:59;;;;;;;6.25;2.83;;;;;;;10.48;100.00;100442.56;4979904;28;20116;-77
2022/10/25 03:13:26;;;;;;;5.50;3.55;;;;;;;10.50;100.00;100446.03;4980065;28;20483;-80
2022/10/25 03:15:53;;;;;;;4.50;2.75;;;;;;;10.53;100.00;100448.63;4958660;28;20090;-78
2022/10/25 03:18:21;;;;;;;6.45;2.85;;;;;;;10.54;100.00;100450.38;4984537;28;20492;-79
2022/10/25 03:20:47;;;;;;;6.10;3.50;;;;;;;10.56;100.00;100456.47;4974389;28;20043;-78
2022/10/25 03:23:15;;;;;;;9.20;3.63;;;;;;;10.58;100.00;100457.28;4971307;28;20520;-79
2022/10/25 03:25:41;;;;;;;5.75;3.20;;;;;;;10.60;100.00;100452.88;4974439;28;20089;-77
2022/10/25 03:28:08;;;;;;;3.67;2.80;;;;;;;10.63;100.00;100458.06;4984683;28;20167;-78
2022/10/25 03:30:34;;;;;;;5.10;3.28;;;;;;;10.63;100.00;100446.63;4978122;28;20093;-80
2022/10/25 03:33:01;;;;;;;6.03;3.17;;;;;;;10.63;100.00;100458.06;4968898;28;20042;-77
2022/10/25 03:35:28;;;;;;;7.45;2.92;;;;;;;10.59;100.00;100445.81;4960339;28;20042;-79
2022/10/25 03:37:54;;;;;;;7.82;3.22;;;;;;;10.56;100.00;100448.56;4989576;28;20038;-79
2022/10/25 03:40:21;;;;;;;5.68;2.85;;;;;;;10.53;100.00;100455.69;4977452;28;20092;-79
2022/10/25 03:42:47;;;;;;;7.75;3.38;;;;;;;10.50;100.00;100461.91;4977564;28;20096;-79
2022/10/25 03:45:14;;;;;;;6.93;2.90;;;;;;;10.48;100.00;100457.56;4964209;28;20053;-77
2022/10/25 03:47:41;;;;;;;7.47;2.92;;;;;;;10.43;100.00;100463.84;4981857;28;20038;-78
2022/10/25 03:50:08;;;;;;;4.88;2.70;;;;;;;10.47;100.00;100461.97;4959360;28;20042;-78
2022/10/25 03:52:35;;;;;;;5.82;2.80;;;;;;;10.49;100.00;100468.09;4971755;28;20038;-79
2022/10/25 03:55:01;;;;;;;8.75;3.22;;;;;;;10.53;100.00;100469.75;4990081;28;20283;-79
2022/10/25 03:57:28;;;;;;;4.15;2.63;;;;;;;10.54;100.00;100476.78;4958399;28;20046;-79
2022/10/25 03:59:56;;;;;;;7.38;3.33;;;;;;;10.57;100.00;100478.47;4977201;28;20041;-80
2022/10/25 04:02:23;;;;;;;6.57;4.68;;;;;;;10.59;100.00;100480.16;4994570;28;20045;-79
2022/10/25 04:04:49;;;;;;;11.23;5.43;;;;;;;10.62;100.00;100481.88;4977614;28;20349;-79
2022/10/25 04:07:16;;;;;;;9.80;4.60;;;;;;;10.69;100.00;100478.19;4975651;28;20042;-78
2022/10/25 04:09:43;;;;;;;9.25;4.75;;;;;;;10.74;100.00;100484.22;4980046;28;20037;-79
2022/10/25 04:12:10;;;;;;;7.15;3.83;;;;;;;10.78;100.00;100483.25;4980624;28;20133;-79
2022/10/25 04:14:37;;;;;;;7.43;4.40;;;;;;;10.86;100.00;100486.59;4996214;28;20065;-79
2022/10/25 04:17:04;;;;;;;9.00;3.50;;;;;;;10.94;100.00;100482.00;4978067;28;20042;-79
2022/10/25 04:19:30;;;;;;;8.43;3.15;;;;;;;11.04;100.00;100490.56;4986602;28;20061;-79
2022/10/25 04:21:57;;;;;;;10.35;3.67;;;;;;;11.28;100.00;100484.63;4967798;28;20082;-79
2022/10/25 04:24:23;;;;;;;7.72;3.35;;;;;;;11.35;100.00;100476.50;4974303;28;20042;-78
2022/10/25 04:26:50;;;;;;;8.35;3.42;;;;;;;11.44;100.00;100471.88;4978011;28;20047;-80
2022/10/25 04:29:16;;;;;;;4.90;3.40;;;;;;;11.62;100.00;100478.44;4959110;28;20065;-78
2022/10/25 04:31:43;;;;;;;9.45;3.42;;;;;;;11.71;100.00;100486.13;4974931;28;20060;-78
2022/10/25 04:34:10;;;;;;;4.70;2.70;;;;;;;11.66;100.00;100479.22;4998864;28;20073;-79
2022/10/25 04:36:37;;;;;;;4.30;2.83;;;;;;;11.63;100.00;100474.00;5104478;23;20438;-82
2022/10/25 04:39:04;;;;;;;4.85;3.03;;;;;;;11.58;100.00;100476.78;5000237;28;20049;-83
2022/10/25 04:41:31;;;;;;;5.32;3.40;;;;;;;11.60;100.00;100472.31;5041715;28;20052;-84
2022/10/25 04:43:57;;;;;;;7.13;3.55;;;;;;;11.52;100.00;100469.88;5016998;28;20041;-84
2022/10/25 04:46:24;;;;;;;7.30;3.08;;;;;;;11.52;100.00;100476.97;4985542;28;20034;-85
2022/10/25 04:48:51;;;;;;;6.13;3.03;;;;;;;11.52;100.00;100471.69;5016612;28;20197;-84
2022/10/25 04:51:17;;;;;;;7.00;3.65;;;;;;;11.57;100.00;100473.25;5005152;28;20071;-85
2022/10/25 04:53:44;;;;;;;7.53;3.08;;;;;;;11.52;100.00;100476.97;5010441;28;20053;-84
2022/10/25 04:56:13;;;;;;;5.75;2.92;;;;;;;11.50;100.00;100476.97;5011226;28;20073;-83
2022/10/25 04:58:40;;;;;;;6.60;3.95;;;;;;;11.48;100.00;100477.94;5014274;28;20041;-84
2022/10/25 05:01:11;;;;;;;6.45;3.55;;;;;;;11.44;100.00;100479.81;4982226;28;20049;-83
2022/10/25 05:03:39;;;;;;;8.85;3.25;;;;;;;11.44;100.00;100473.66;4990816;28;20049;-83
2022/10/25 05:06:14;;;;;;;7.38;3.00;;;;;;;11.43;100.00;100474.53;5013854;28;20107;-83
2022/10/25 05:08:42;;;;;;;7.78;2.97;;;;;;;11.40;100.00;100478.13;4997860;28;20053;-84
2022/10/25 05:11:10;;;;;;;5.15;3.47;;;;;;;11.43;100.00;100482.47;4998459;28;20068;-83
2022/10/25 05:13:38;;;;;;;6.50;3.20;;;;;;;11.42;100.00;100480.75;4994775;28;20049;-83
2022/10/25 05:16:06;;;;;;;6.85;3.33;;;;;;;11.46;100.00;100477.13;5010844;28;20045;-83
2022/10/25 05:18:33;;;;;;;3.42;2.80;;;;;;;11.45;100.00;100478.91;5023721;28;20041;-83
2022/10/25 05:21:03;;;;;;;7.95;4.00;;;;;;;11.47;100.00;100481.50;5022273;28;20041;-84
2022/10/25 05:23:30;;;;;;;6.40;3.28;;;;;;;11.43;100.00;100482.47;4998322;28;20049;-84
2022/10/25 05:26:03;;;;;;;5.22;3.10;;;;;;;11.47;100.00;100489.44;5008498;28;20037;-83
2022/10/25 05:28:30;;;;;;;6.63;2.83;;;;;;;11.44;100.00;100486.88;5002292;28;20096;-84
2022/10/25 05:31:01;;;;;;;4.60;2.72;;;;;;;11.44;100.00;100490.41;4985204;28;20049;-83
2022/10/25 05:33:28;;;;;;;7.20;3.00;;;;;;;11.44;100.00;100489.53;5001462;28;20053;-83
2022/10/25 05:35:55;;;;;;;6.13;3.15;;;;;;;11.45;100.00;100481.53;5016610;28;20095;-84
2022/10/25 05:38:21;;;;;;;4.53;2.97;;;;;;;11.42;100.00;100486.91;5000565;28;20072;-84
2022/10/25 05:40:55;;;;;;;4.47;3.15;;;;;;;11.45;100.00;100496.56;5002443;28;20565;-84
2022/10/25 05:43:23;;;;;;;7.05;3.45;;;;;;;11.44;100.00;100492.19;5000777;28;20061;-84
2022/10/25 05:45:50;;;;;;;10.13;3.78;;;;;;;11.46;100.00;100495.63;4998970;28;20049;-83
2022/10/25 05:48:17;;;;;;;5.18;2.97;;;;;;;11.47;100.00;100494.72;5004668;28;20092;-83
2022/10/25 05:50:44;;;;;;;7.75;3.80;;;;;;;11.49;100.00;100488.47;5016171;28;20045;-84
2022/10/25 05:53:11;;;;;;;6.90;3.83;;;;;;;11.51;100.00;100505.16;5025658;28;20094;-83
2022/10/25 05:55:37;;;;;;;5.22;3.75;;;;;;;11.53;100.00;100503.38;5033406;28;20049;-84
2022/10/25 05:58:04;;;;;;;7.25;4.03;;;;;;;11.53;100.00;100506.03;5017031;28;20037;-84
2022/10/25 06:00:31;;;;;;;6.88;3.90;;;;;;;11.50;100.00;100506.06;5000373;28;20041;-84
2022/10/25 06:03:00;;;;;;;7.60;3.95;;;;;;;11.54;100.00;100512.19;5001404;28;20136;-84
2022/10/25 06:05:27;;;;;;;10.40;4.75;;;;;;;11.56;100.00;100511.22;4998904;28;20045;-85
2022/10/25 06:07:53;;;;;;;7.00;4.30;;;;;;;11.65;100.00;100515.38;4999843;28;20099;-84
2022/10/25 06:10:20;;;;;;;5.47;4.00;;;;;;;11.78;100.00;100522.09;5000926;28;20072;-84
2022/10/25 06:12:47;;;;;;;8.13;4.22;;;;;;;11.78;100.00;100523.88;5016829;28;20815;-83
2022/10/25 06:15:14;;;;;;;7.85;4.72;;;;;;;11.86;100.00;100529.00;5023635;28;20180;-85
2022/10/25 06:17:40;;;;;;;8.48;5.13;;;;;;;11.88;100.00;100537.75;4986676;28;20049;-83
2022/10/25 06:20:07;;;;;;;10.10;5.25;;;;;;;11.84;100.00;100545.75;4999784;28;20041;-83
2022/10/25 06:22:34;;;;;;;7.55;5.00;;;;;;;11.88;100.00;100543.06;5016609;28;20064;-83
2022/10/25 06:25:01;;;;;;;9.30;5.00;;;;;;;11.79;100.00;100545.00;5000309;28;20045;-83
2022/10/25 06:27:27;;;;;;;11.18;5.18;;;;;;;11.98;100.00;100550.69;5012583;28;20037;-83
2022/10/25 06:29:54;;;;;;;8.85;4.18;;;;;;;11.88;100.00;100548.34;5029887;28;20042;-84
2022/10/25 06:32:20;;;;;;;7.82;3.80;;;;;;;11.97;100.00;100558.69;5013153;28;20049;-83
2022/10/25 06:34:47;;;;;;;5.72;3.70;;;;;;;11.93;100.00;100559.66;4996496;28;20049;-83
2022/10/25 06:37:14;;;;;;;7.65;3.97;;;;;;;11.91;100.00;100565.00;5013985;28;20125;-82
2022/10/25 06:39:40;;;;;;;8.55;4.85;;;;;;;11.95;100.00;100565.81;4999963;28;20050;-82
2022/10/25 06:42:07;;;;;;;6.53;4.10;;;;;;;11.98;100.00;100565.72;4983490;28;20046;-84
2022/10/25 06:44:34;;;;;;;7.53;4.30;;;;;;;12.03;100.00;100563.81;4999443;28;20513;-85
2022/10/25 06:47:01;;;;;;;6.30;3.35;;;;;;;12.09;100.00;100569.78;4982270;28;20050;-84
2022/10/25 06:49:43;;;;;;;6.40;2.88;;;;;;;12.09;100.00;100574.22;5016155;28;20037;-84
2022/10/25 06:52:09;;;;;;;7.68;4.55;;;;;;;12.14;100.00;100587.34;5031899;28;20038;-85
2022/10/25 06:54:36;;;;;;;4.95;4.00;;;;;;;12.20;100.00;100580.09;5026652;28;20057;-84
2022/10/25 06:57:02;;;;;;;7.53;4.70;;;;;;;12.21;100.00;100584.47;4997023;28;20034;-85
2022/10/25 06:59:29;;;;;;;5.88;3.58;;;;;;;12.32;100.00;100584.16;5015573;28;20068;-84
2022/10/25 07:01:56;;;;;;;6.32;3.22;;;;;;;12.30;100.00;100583.34;4999096;28;20067;-87
2022/10/25 07:04:23;;;;;;;5.38;3.83;;;;;;;12.30;100.00;100589.50;5005095;28;20479;-86
2022/10/25 07:06:49;;;;;;;6.25;3.70;;;;;;;12.31;100.00;100588.59;4998508;28;20407;-85
2022/10/25 07:09:20;;;;;;;8.38;3.65;;;;;;;12.33;100.00;100588.53;5006009;28;20045;-85
2022/10/25 07:11:47;;;;;;;6.68;5.50;;;;;;;12.31;100.00;100590.38;5008470;28;20492;-85
2022/10/25 07:14:14;;;;;;;7.05;4.63;;;;;;;12.43;100.00;100599.72;4987142;28;20070;-85
2022/10/25 07:16:40;;;;;;;6.03;4.60;;;;;;;12.38;100.00;100592.81;4994604;28;20096;-85
2022/10/25 07:19:08;;;;;;;8.18;5.03;;;;;;;12.46;100.00;100589.94;5010947;28;20041;-86
2022/10/25 07:21:35;;;;;;;7.97;4.25;;;;;;;12.52;100.00;100596.81;5038338;28;20038;-86
2022/10/25 07:24:02;;;;;;;7.53;3.72;;;;;;;12.56;100.00;100595.81;5020045;28;20037;-87
2022/10/25 07:26:32;;;;;;;4.03;2.55;;;;;;;12.74;100.00;100597.91;4998030;28;20068;-85
2022/10/25 07:29:00;;;;;;;4.63;2.28;;;;;;;12.75;100.00;100599.66;5012280;28;20046;-86
2022/10/25 07:31:28;;;;;;;8.15;4.53;;;;;;;12.90;100.00;100601.84;5019702;28;20041;-85
2022/10/25 07:33:58;;;;;;;7.57;4.95;;;;;;;13.06;100.00;100598.72;4993439;28;20498;-85
2022/10/25 07:36:25;;;;;;;8.63;2.83;;;;;;;13.15;100.00;100604.59;5000030;28;20136;-85
2022/10/25 07:38:55;;;;;;;3.65;2.17;;;;;;;13.28;100.00;100609.53;4998308;28;20073;-83
2022/10/25 07:41:23;;;;;;;4.05;2.40;;;;;;;13.42;100.00;100604.63;4998470;28;20463;-85
2022/10/25 07:43:50;;;;;;;3.75;2.22;;;;;;;13.45;100.00;100610.72;5012960;28;20050;-85
2022/10/25 07:46:17;;;;;;;3.92;2.35;;;;;;;13.43;100.00;100607.25;4981505;28;20048;-84
2022/10/25 07:48:44;;;;;;;3.75;1.90;;;;;;;13.51;100.00;100607.00;5016478;28;20048;-85
2022/10/25 07:51:13;;;;;;;10.70;5.50;;;;;;;13.44;100.00;100613.41;4996369;28;20396;-85
2022/10/25 07:53:40;;;;;;;10.23;6.63;;;;;;;13.38;100.00;100603.03;5008459;28;20045;-86
2022/10/25 07:56:11;;;;;;;7.05;5.15;;;;;;;13.34;100.00;100604.88;5020761;28;20395;-85
2022/10/25 07:58:37;;;;;;;5.03;3.08;;;;;;;13.37;100.00;100602.16;5003350;28;20037;-85
2022/10/25 08:01:06;;;;;;;3.60;3.13;;;;;;;13.42;100.00;100610.81;4995710;28;20073;-86
2022/10/25 08:03:33;;;;;;;4.95;3.55;;;;;;;13.43;100.00;100609.03;4984910;28;20047;-85
2022/10/25 08:06:00;;;;;;;5.07;2.28;;;;;;;13.51;100.00;100601.69;5001666;28;20111;-85
2022/10/25 08:08:28;;;;;;;4.97;2.88;;;;;;;13.47;100.00;100610.69;4998816;28;20038;-84
2022/10/25 08:10:55;;;;;;;6.60;2.65;;;;;;;13.45;100.00;100612.50;4998293;28;20048;-84
2022/10/25 08:13:22;;;;;;;6.70;1.95;;;;;;;13.51;100.00;100618.47;5006606;28;20526;-86
2022/10/25 08:15:50;;;;;;;5.72;2.78;;;;;;;13.67;100.00;100610.00;5019561;28;20064;-85
2022/10/25 08:18:16;;;;;;;4.22;1.90;;;;;;;13.73;100.00;100615.09;5000782;28;20037;-85
2022/10/25 08:20:43;;;;;;;4.65;2.30;;;;;;;13.84;100.00;100617.38;5011796;28;20439;-86
2022/10/25 08:23:27;;;;;;;6.97;2.63;;;;;;;13.89;100.00;100620.75;4996706;28;20048;-87
2022/10/25 08:25:54;;;;;;;7.10;2.65;;;;;;;13.93;100.00;100617.94;5027511;28;20075;-85
2022/10/25 08:28:21;;;;;;;4.93;2.10;;;;;;;14.01;100.00;100620.31;5020948;28;20037;-86
2022/10/25 08:30:47;;;;;;;6.07;2.22;;;;;;;14.11;100.00;100612.88;5021825;28;20045;-86
2022/10/25 08:33:14;;;;;;;4.82;2.30;;;;;;;14.21;100.00;100620.50;5015174;28;20136;-85
2022/10/25 08:35:41;;;;;;;4.47;2.40;;;;;;;14.23;100.00;100623.97;4997120;28;20128;-85
2022/10/25 08:38:07;;;;;;;3.03;2.20;;;;;;;14.30;100.00;100627.25;4997542;28;20483;-87
2022/10/25 08:40:55;;;;;;;5.22;3.25;;;;;;;14.34;100.00;100629.75;5014270;28;20049;-84
2022/10/25 08:43:41;;;;;;;5.88;2.90;;;;;;;14.39;100.00;100628.72;4997483;28;20053;-86
2022/10/25 08:46:12;;;;;;;6.43;2.60;;;;;;;14.39;100.00;100626.94;5014496;28;20092;-85
2022/10/25 08:48:43;;;;;;;5.78;3.05;;;;;;;14.50;100.00;100635.41;4997277;28;20087;-84
2022/10/25 08:51:18;;;;;;;6.35;2.65;;;;;;;14.58;100.00;100624.47;4985842;28;20053;-86
2022/10/25 08:53:47;;;;;;;5.50;2.63;;;;;;;14.54;100.00;100639.66;5021760;28;20073;-85
2022/10/25 08:56:16;;;;;;;5.85;3.30;;;;;;;14.57;100.00;100630.72;5010309;28;20052;-84
2022/10/25 08:58:49;;;;;;;5.38;2.67;;;;;;;14.75;100.00;100645.13;5005110;28;20567;-85
2022/10/25 09:01:24;;;;;;;5.00;3.97;;;;;;;14.85;100.00;100636.72;4997293;28;20049;-86
2022/10/25 09:03:51;;;;;;;5.40;2.90;;;;;;;14.91;100.00;100633.84;5008659;28;20052;-85
2022/10/25 09:06:28;;;;;;;3.65;2.65;;;;;;;15.00;100.00;100635.28;5006559;28;20042;-85
2022/10/25 09:09:22;;;;;;;6.43;3.30;;;;;;;15.03;100.00;100637.78;5000911;28;20045;-85
2022/10/25 09:12:11;;;;;;;7.45;3.20;;;;;;;15.09;100.00;100642.03;5001626;28;20049;-84
2022/10/25 09:14:52;;;;;;;6.40;3.30;;;;;;;15.14;100.00;100642.72;5012938;28;20052;-85
2022/10/25 09:17:21;;;;;;;5.35;3.03;;;;;;;15.15;100.00;100653.31;5029323;28;20687;-85
2022/10/25 09:20:05;;;;;;;6.68;3.40;;;;;;;15.30;100.00;100640.28;5011199;28;20042;-84
2022/10/25 09:22:45;;;;;;;10.55;3.35;;;;;;;15.20;100.00;100643.31;5016658;28;21781;-84
2022/10/25 09:25:22;;;;;;;4.90;2.83;;;;;;;15.32;100.00;100646.44;4994612;28;20046;-85
2022/10/25 09:27:58;;;;;;;7.63;3.85;;;;;;;15.33;100.00;100645.50;5029022;28;20593;-86
2022/10/25 09:30:26;;;;;;;6.07;3.28;;;;;;;15.37;100.00;100647.09;5009311;28;20060;-84
2022/10/25 09:33:03;;;;;;;5.57;3.38;;;;;;;15.46;100.00;100652.06;5039783;28;20045;-85
2022/10/25 09:35:32;;;;;;;4.75;3.30;;;;;;;15.42;100.00;100658.44;5024659;28;20069;-84
2022/10/25 09:37:58;;;;;;;4.35;2.95;;;;;;;15.35;100.00;100656.94;5031258;28;20033;-85
2022/10/25 09:40:29;;;;;;;7.03;3.33;;;;;;;15.31;100.00;100660.69;5032608;28;20454;-85
2022/10/25 09:43:00;;;;;;;5.60;3.97;;;;;;;15.25;100.00;100655.59;5040650;28;20053;-84
2022/10/25 09:45:46;;;;;;;6.75;2.80;;;;;;;15.19;100.00;100664.69;4991180;28;20414;-85
2022/10/25 09:48:26;;;;;;;6.32;3.13;;;;;;;15.13;100.00;100675.56;4982990;28;20030;-85
2022/10/25 09:51:00;;;;;;;7.28;3.22;;;;;;;15.20;100.00;100677.06;5031963;28;20045;-84
2022/10/25 09:53:27;;;;;;;5.57;3.20;;;;;;;15.07;100.00;100676.69;4987185;28;20439;-84
2022/10/25 09:55:56;;;;;;;4.43;3.13;;;;;;;15.01;100.00;100684.03;5012395;28;20079;-85
2022/10/25 09:58:25;;;;;;;4.85;3.15;;;;;;;14.95;100.00;100684.25;5030287;28;20048;-84
2022/10/25 10:00:54;;;;;;;5.88;3.88;;;;;;;14.81;100.00;100684.78;5014941;28;20050;-84
2022/10/25 10:03:21;;;;;;;6.07;3.83;;;;;;;14.86;100.00;100686.31;5017803;28;20046;-85
2022/10/25 10:05:54;;;;;;;4.80;4.00;;;;;;;14.81;100.00;100690.09;5001397;28;20060;-86
2022/10/25 10:08:21;;;;;;;7.32;3.78;;;;;;;14.76;100.00;100694.72;5019932;28;20041;-86
2022/10/25 10:10:49;;;;;;;4.90;4.03;;;;;;;14.70;100.00;100693.13;5031904;28;20069;-85
2022/10/25 10:13:33;;;;;;;8.40;3.97;;;;;;;14.68;100.00;100692.34;5002760;28;20045;-85
2022/10/25 10:16:23;;;;;;;4.63;3.63;;;;;;;14.73;100.00;100697.50;5002333;28;20053;-85
2022/10/25 10:18:50;;;;;;;5.65;3.92;;;;;;;14.61;100.00;100690.81;4981946;28;20034;-85
2022/10/25 10:21:19;;;;;;;7.22;3.10;;;;;;;14.49;100.00;100700.13;5003337;28;20614;-85
2022/10/25 10:24:01;;;;;;;5.28;3.90;;;;;;;14.55;100.00;100710.56;5004658;28;20136;-84
2022/10/25 10:26:35;;;;;;;6.60;4.32;;;;;;;14.62;100.00;100697.88;5022843;28;20043;-86
2022/10/25 10:29:08;;;;;;;8.50;4.22;;;;;;;14.59;100.00;100698.88;5039938;28;20098;-83
2022/10/25 10:31:41;;;;;;;7.00;3.97;;;;;;;14.63;100.00;100692.53;5007825;28;20049;-85
2022/10/25 10:34:37;;;;;;;5.78;3.97;;;;;;;14.80;100.00;100701.69;5021256;28;20064;-83
2022/10/25 10:37:21;;;;;;;5.88;4.50;;;;;;;15.05;100.00;100697.16;5005238;28;20037;-84
2022/10/25 10:39:54;;;;;;;5.43;4.05;;;;;;;15.38;100.00;100689.63;5022265;28;20042;-85
2022/10/25 10:42:36;;;;;;;7.00;4.07;;;;;;;15.65;100.00;100692.16;5022524;22;20100;-82
2022/10/25 10:45:12;;;;;;;7.50;4.45;;;;;;;15.92;100.00;100692.81;4998926;28;20042;-81
2022/10/25 10:47:48;;;;;;;5.63;3.78;;;;;;;16.13;100.00;100685.69;5033624;28;20073;-81
2022/10/25 10:50:24;;;;;;;21.92;12.50;;;;;;;16.00;100.00;100691.56;5003460;28;20045;-80
2022/10/25 10:53:04;;;;;;;28.50;23.17;;;;;;;15.93;100.00;100686.56;5010708;28;20037;-80
2022/10/25 10:55:37;;;;;;;5.00;4.03;;;;;;;15.92;100.00;100692.81;5022357;28;20033;-81
2022/10/25 10:58:12;;;;;;;5.97;4.20;;;;;;;15.96;100.00;100689.06;5007705;28;20037;-81
2022/10/25 11:00:39;;;;;;;5.32;4.05;;;;;;;16.07;100.00;100701.97;5016502;28;20459;-81
2022/10/25 11:03:40;;;;;;;4.85;3.85;;;;;;;16.15;100.00;100700.72;5005829;28;20044;-81
2022/10/25 11:06:28;;;;;;;5.88;3.83;;;;;;;16.18;100.00;100697.03;5011218;28;20113;-80
2022/10/25 11:09:23;;;;;;;5.78;3.53;;;;;;;16.10;100.00;100701.81;4989830;28;20037;-81
2022/10/25 11:12:10;;;;;;;5.10;3.53;;;;;;;15.95;100.00;100709.53;5004447;28;20045;-82
2022/10/25 11:14:37;;;;;;;4.28;3.00;;;;;;;15.91;100.00;100709.72;4988678;28;20064;-82
2022/10/25 11:17:15;;;;;;;8.82;3.47;;;;;;;15.97;100.00;100712.13;4987199;28;20572;-81
2022/10/25 11:19:47;;;;;;;6.93;5.60;;;;;;;16.11;100.00;100712.41;5016790;28;20099;-81
2022/10/25 11:22:20;;;;;;;7.57;3.45;;;;;;;16.10;100.00;100716.00;5003555;28;20477;-81
2022/10/25 11:25:11;;;;;;;6.25;3.42;;;;;;;16.00;100.00;100720.88;5036679;28;20056;-81
2022/10/25 11:28:08;;;;;;;4.75;3.65;;;;;;;15.95;100.00;100712.19;5019670;28;20103;-80
2022/10/25 11:31:13;;;;;;;5.22;4.03;;;;;;;15.84;100.00;100716.25;4987676;28;20254;-81
2022/10/25 11:33:42;;;;;;;;;;;;;;;15.79;100.00;100713.75;5020599;28;20071;-83